createdAt,value
2022-10-14T00:02:32.906Z,8.43
2022-10-14T00:05:35.757Z,8.13
2022-10-14T00:08:40.464Z,8.65
2022-10-14T00:11:43.367Z,8.55
2022-10-14T00:14:46.356Z,8.07
2022-10-14T00:17:49.269Z,8.68
2022-10-14T00:20:55.820Z,8.33
2022-10-14T00:23:59.964Z,8.00
2022-10-14T00:27:02.781Z,8.20
2022-10-14T00:30:06.219Z,8.32
2022-10-14T00:33:09.299Z,8.05
2022-10-14T00:36:14.232Z,7.80
2022-10-14T00:39:18.445Z,8.10
2022-10-14T00:42:21.060Z,8.02
2022-10-14T00:45:25.463Z,7.90
2022-10-14T00:48:28.017Z,7.43
2022-10-14T00:51:30.977Z,6.97
2022-10-14T00:54:38.701Z,7.40
2022-10-14T00:57:41.678Z,7.85
2022-10-14T01:00:44.385Z,7.55
2022-10-14T01:03:47.366Z,7.40
2022-10-14T01:07:01.386Z,7.57
2022-10-14T01:10:12.438Z,6.90
2022-10-14T01:13:25.802Z,8.30
2022-10-14T01:16:37.975Z,7.40
2022-10-14T01:20:17.700Z,7.60
2022-10-14T01:23:48.956Z,7.43
2022-10-14T01:27:15.139Z,7.25
2022-10-14T01:30:20.625Z,7.35
2022-10-14T01:33:26.508Z,7.13
2022-10-14T01:36:33.573Z,7.22
2022-10-14T01:39:43.484Z,7.83
2022-10-14T01:42:48.578Z,7.15
2022-10-14T01:45:55.435Z,7.07
2022-10-14T01:49:03.827Z,7.30
2022-10-14T01:52:10.048Z,7.32
2022-10-14T01:55:18.759Z,7.40
2022-10-14T01:58:24.597Z,7.20
2022-10-14T02:01:28.936Z,7.45
2022-10-14T02:04:31.617Z,7.57
2022-10-14T02:07:40.447Z,7.10
2022-10-14T02:11:08.047Z,7.00
2022-10-14T02:14:23.316Z,7.07
2022-10-14T02:17:31.337Z,7.10
2022-10-14T02:20:37.411Z,7.13
2022-10-14T02:23:44.096Z,7.65
2022-10-14T02:26:48.430Z,7.50
2022-10-14T02:29:53.188Z,7.10
2022-10-14T02:32:58.443Z,7.50
2022-10-14T02:36:03.091Z,7.13
2022-10-14T02:39:08.916Z,7.20
2022-10-14T02:42:11.666Z,7.40
2022-10-14T02:45:15.639Z,6.93
2022-10-14T02:48:19.704Z,7.10
2022-10-14T02:51:22.263Z,7.65
2022-10-14T02:54:24.986Z,7.50
2022-10-14T02:57:27.590Z,7.50
2022-10-14T03:00:30.372Z,7.63
2022-10-14T03:03:34.618Z,8.10
2022-10-14T03:06:37.220Z,7.18
2022-10-14T03:09:39.939Z,7.28
2022-10-14T03:12:42.504Z,7.33
2022-10-14T03:15:45.241Z,6.90
2022-10-14T03:18:49.167Z,7.40
2022-10-14T03:21:51.942Z,7.20
2022-10-14T03:24:54.473Z,6.97
2022-10-14T03:27:57.230Z,7.53
2022-10-14T03:30:59.780Z,7.35
2022-10-14T03:34:04.594Z,7.45
2022-10-14T03:37:07.748Z,7.17
2022-10-14T03:40:11.648Z,7.85
2022-10-14T03:43:14.307Z,7.65
2022-10-14T03:46:17.154Z,7.45
2022-10-14T03:49:21.084Z,7.00
2022-10-14T03:52:24.132Z,7.17
2022-10-14T03:55:26.982Z,7.88
2022-10-14T03:58:29.553Z,8.00
2022-10-14T04:01:32.223Z,7.63
2022-10-14T04:04:36.202Z,7.57
2022-10-14T04:07:39.055Z,6.83
2022-10-14T04:10:41.672Z,8.02
2022-10-14T04:13:45.293Z,7.57
2022-10-14T04:16:50.023Z,7.90
2022-10-14T04:19:54.570Z,7.40
2022-10-14T04:23:00.308Z,7.10
2022-10-14T04:26:04.579Z,7.75
2022-10-14T04:29:07.465Z,7.80
2022-10-14T04:32:10.306Z,7.80
2022-10-14T04:35:14.649Z,7.53
2022-10-14T04:38:17.202Z,7.70
2022-10-14T04:41:19.912Z,8.02
2022-10-14T04:44:22.591Z,7.43
2022-10-14T04:47:25.206Z,7.43
2022-10-14T04:50:29.450Z,7.10
2022-10-14T04:53:32.004Z,7.60
2022-10-14T04:56:34.726Z,7.13
2022-10-14T04:59:37.291Z,7.80
2022-10-14T05:02:40.113Z,7.97
2022-10-14T05:05:44.042Z,7.78
2022-10-14T05:08:46.896Z,7.53
2022-10-14T05:11:49.470Z,7.15
2022-10-14T05:14:52.204Z,8.70
2022-10-14T05:17:54.799Z,7.88
2022-10-14T05:21:00.679Z,8.32
2022-10-14T05:24:03.324Z,7.87
2022-10-14T05:27:05.952Z,8.35
2022-10-14T05:30:09.790Z,8.13
2022-10-14T05:33:13.164Z,8.13
2022-10-14T05:36:17.096Z,7.85
2022-10-14T05:39:19.807Z,8.30
2022-10-14T05:42:23.070Z,7.97
2022-10-14T05:45:26.679Z,9.32
2022-10-14T05:48:29.306Z,8.23
2022-10-14T05:51:33.658Z,8.20
2022-10-14T05:54:36.819Z,8.10
2022-10-14T05:57:39.438Z,7.82
2022-10-14T06:00:42.258Z,8.40
2022-10-14T06:03:44.891Z,8.07
2022-10-14T06:06:49.548Z,8.18
2022-10-14T06:09:52.701Z,8.47
2022-10-14T06:12:55.271Z,8.48
2022-10-14T06:15:57.992Z,7.72
2022-10-14T06:19:00.600Z,8.27
2022-10-14T06:22:04.669Z,7.80
2022-10-14T06:25:07.875Z,7.93
2022-10-14T06:28:11.304Z,7.43
2022-10-14T06:31:14.049Z,8.45
2022-10-14T06:34:16.769Z,9.02
2022-10-14T06:37:20.703Z,8.98
2022-10-14T06:40:23.419Z,8.77
2022-10-14T06:43:26.083Z,8.50
2022-10-14T06:46:28.800Z,8.38
2022-10-14T06:49:31.324Z,8.48
2022-10-14T06:52:35.253Z,8.43
2022-10-14T06:55:38.204Z,9.23
2022-10-14T06:58:40.982Z,9.32
2022-10-14T07:01:43.612Z,9.02
2022-10-14T07:04:46.333Z,10.35
2022-10-14T07:07:52.269Z,11.75
2022-10-14T07:10:55.088Z,11.97
2022-10-14T07:13:58.881Z,11.98
2022-10-14T07:17:01.508Z,12.07
2022-10-14T07:20:04.320Z,10.95
2022-10-14T07:23:08.364Z,10.90
2022-10-14T07:26:10.967Z,10.33
2022-10-14T07:29:13.620Z,10.50
2022-10-14T07:32:16.179Z,9.68
2022-10-14T07:35:20.098Z,9.55
2022-10-14T07:38:24.080Z,9.52
2022-10-14T07:41:26.729Z,9.60
2022-10-14T07:44:29.475Z,9.68
2022-10-14T07:47:33.271Z,9.75
2022-10-14T07:50:35.855Z,9.98
2022-10-14T07:53:39.997Z,10.82
2022-10-14T07:56:46.378Z,11.37
2022-10-14T07:59:49.199Z,11.02
2022-10-14T08:02:51.779Z,11.55
2022-10-14T08:06:00.428Z,11.60
2022-10-14T08:09:08.803Z,11.60
2022-10-14T08:12:11.804Z,10.37
2022-10-14T08:15:14.509Z,10.93
2022-10-14T08:18:17.217Z,10.73
2022-10-14T08:21:22.027Z,10.57
2022-10-14T08:24:26.186Z,10.35
2022-10-14T08:27:28.765Z,10.57
2022-10-14T08:30:31.497Z,10.43
2022-10-14T08:33:34.275Z,11.07
2022-10-14T08:36:36.834Z,9.98
2022-10-14T08:39:40.903Z,10.48
2022-10-14T08:42:51.849Z,11.00
2022-10-14T08:45:59.821Z,10.30
2022-10-14T08:49:08.663Z,10.48
2022-10-14T08:52:16.404Z,10.98
2022-10-14T08:55:28.897Z,10.00
2022-10-14T08:58:34.262Z,11.77
2022-10-14T09:01:46.815Z,11.02
2022-10-14T09:04:49.859Z,10.48
2022-10-14T09:07:54.985Z,11.27
2022-10-14T09:10:59.739Z,10.13
2022-10-14T09:14:03.703Z,9.10
2022-10-14T09:17:10.009Z,9.30
2022-10-14T09:20:20.086Z,8.95
2022-10-14T09:23:24.567Z,8.95
2022-10-14T09:26:38.629Z,8.73
2022-10-14T09:29:46.405Z,9.27
2022-10-14T09:32:51.933Z,8.10
2022-10-14T09:35:54.641Z,8.85
2022-10-14T09:38:59.951Z,7.50
2022-10-14T09:42:14.469Z,7.45
2022-10-14T09:45:19.850Z,6.77
2022-10-14T09:48:32.732Z,8.05
2022-10-14T09:51:36.100Z,7.05
2022-10-14T09:54:38.802Z,7.90
2022-10-14T09:57:43.038Z,6.43
2022-10-14T10:00:47.257Z,6.00
2022-10-14T10:03:51.761Z,5.82
2022-10-14T10:06:56.390Z,6.10
2022-10-14T10:10:01.513Z,5.90
2022-10-14T10:13:06.197Z,6.10
2022-10-14T10:16:19.977Z,6.33
2022-10-14T10:19:29.000Z,5.90
2022-10-14T10:22:36.644Z,5.57
2022-10-14T10:25:39.354Z,6.20
2022-10-14T10:28:47.305Z,5.70
2022-10-14T10:32:07.073Z,6.70
2022-10-14T10:35:23.709Z,6.43
2022-10-14T10:38:31.734Z,5.25
2022-10-14T10:41:50.538Z,5.30
2022-10-14T10:45:07.338Z,6.25
2022-10-14T10:48:18.546Z,5.63
2022-10-14T10:51:30.498Z,7.63
2022-10-14T10:54:44.538Z,6.90
2022-10-14T10:58:01.605Z,7.97
2022-10-14T11:01:19.085Z,7.75
2022-10-14T11:04:34.332Z,6.73
2022-10-14T11:08:05.159Z,8.48
2022-10-14T11:11:37.078Z,7.57
2022-10-14T11:15:15.619Z,7.15
2022-10-14T11:18:28.903Z,7.47
2022-10-14T11:21:40.904Z,6.33
2022-10-14T11:24:54.572Z,8.02
2022-10-14T11:28:05.499Z,9.15
2022-10-14T11:31:18.058Z,7.13
2022-10-14T11:34:39.064Z,7.90
2022-10-14T11:37:52.428Z,8.23
2022-10-14T11:41:01.865Z,7.50
2022-10-14T11:44:11.635Z,9.00
2022-10-14T11:47:20.469Z,8.30
2022-10-14T11:50:30.480Z,8.07
2022-10-14T11:53:46.165Z,9.23
2022-10-14T11:56:54.865Z,9.00
2022-10-14T12:00:17.929Z,6.60
2022-10-14T12:03:28.439Z,6.30
2022-10-14T12:06:41.703Z,7.03
2022-10-14T12:09:49.289Z,6.33
2022-10-14T12:12:52.882Z,7.68
2022-10-14T12:15:55.932Z,6.70
2022-10-14T12:18:59.285Z,6.32
2022-10-14T12:22:10.858Z,6.05
2022-10-14T12:25:17.377Z,7.23
2022-10-14T12:28:21.168Z,6.20
2022-10-14T12:31:35.749Z,6.15
2022-10-14T12:34:42.292Z,5.57
2022-10-14T12:37:54.368Z,6.80
2022-10-14T12:41:34.441Z,6.10
2022-10-14T12:44:45.671Z,6.28
2022-10-14T12:47:49.098Z,6.45
2022-10-14T12:50:58.486Z,5.78
2022-10-14T12:54:13.993Z,7.10
2022-10-14T12:57:27.425Z,7.30
2022-10-14T13:00:33.512Z,7.03
2022-10-14T13:03:44.548Z,5.68
2022-10-14T13:07:41.987Z,7.13
2022-10-14T13:10:48.061Z,5.97
2022-10-14T13:14:01.732Z,5.97
2022-10-14T13:17:25.227Z,5.38
2022-10-14T13:20:51.650Z,7.20
2022-10-14T13:23:55.670Z,5.93
2022-10-14T13:27:08.449Z,7.25
2022-10-14T13:30:20.424Z,6.57
2022-10-14T13:33:29.558Z,6.28
2022-10-14T13:36:38.000Z,4.80
2022-10-14T13:39:40.759Z,5.70
2022-10-14T13:42:47.168Z,5.60
2022-10-14T13:45:54.147Z,5.80
2022-10-14T13:48:59.293Z,5.13
2022-10-14T13:52:07.842Z,4.72
2022-10-14T13:55:17.055Z,4.70
2022-10-14T13:58:22.901Z,5.68
2022-10-14T14:01:32.235Z,5.20
2022-10-14T14:04:38.149Z,4.93
2022-10-14T14:08:21.659Z,4.97
2022-10-14T14:11:22.060Z,5.13
2022-10-14T14:14:32.520Z,4.90
2022-10-14T14:17:36.678Z,5.23
2022-10-14T14:20:39.284Z,4.47
2022-10-14T14:23:50.876Z,4.50
2022-10-14T14:26:56.015Z,4.60
2022-10-14T14:30:00.144Z,4.20
2022-10-14T14:33:05.220Z,3.73
2022-10-14T14:36:12.068Z,4.90
2022-10-14T14:39:23.819Z,4.43
2022-10-14T14:42:27.683Z,4.13
2022-10-14T14:45:36.214Z,4.30
2022-10-14T14:48:42.233Z,3.77
2022-10-14T14:51:46.187Z,4.55
2022-10-14T14:54:49.450Z,5.95
2022-10-14T14:57:57.868Z,8.00
2022-10-14T15:01:02.377Z,8.98
2022-10-14T15:04:11.937Z,7.33
2022-10-14T15:07:21.468Z,7.40
2022-10-14T15:10:26.936Z,5.88
2022-10-14T15:13:50.514Z,4.32
2022-10-14T15:16:54.631Z,4.72
2022-10-14T15:19:57.856Z,4.60
2022-10-14T15:23:00.635Z,4.63
2022-10-14T15:26:03.286Z,4.50
2022-10-14T15:29:17.826Z,3.90
2022-10-14T15:32:23.192Z,4.00
2022-10-14T15:35:26.621Z,3.50
2022-10-14T15:41:38.927Z,3.65
2022-10-14T15:44:41.494Z,3.80
2022-10-14T15:47:46.186Z,4.70
2022-10-14T15:50:49.025Z,4.20
2022-10-14T15:53:52.737Z,4.15
2022-10-14T16:00:03.977Z,4.38
2022-10-14T16:03:08.082Z,4.28
2022-10-14T16:06:10.724Z,4.07
2022-10-14T16:09:13.547Z,4.32
2022-10-14T16:12:16.711Z,4.45
2022-10-14T16:15:33.259Z,4.45
2022-10-14T16:18:37.288Z,4.47
2022-10-14T16:21:40.243Z,4.13
2022-10-14T16:24:43.137Z,5.03
2022-10-14T16:27:45.727Z,5.60
2022-10-14T16:30:50.088Z,5.05
2022-10-14T16:33:55.537Z,8.57
2022-10-14T16:36:58.130Z,9.00
2022-10-14T16:40:01.068Z,8.98
2022-10-14T16:43:03.846Z,8.93
2022-10-14T16:46:10.414Z,7.95
2022-10-14T16:49:17.270Z,6.35
2022-10-14T16:52:20.354Z,5.43
2022-10-14T16:55:23.949Z,5.10
2022-10-14T16:58:27.841Z,4.93
2022-10-14T17:01:30.674Z,4.55
2022-10-14T17:04:34.741Z,4.63
2022-10-14T17:07:37.302Z,4.53
2022-10-14T17:10:40.608Z,4.25
2022-10-14T17:13:43.353Z,4.50
2022-10-14T17:16:48.094Z,4.55
2022-10-14T17:19:53.867Z,5.03
2022-10-14T17:22:56.401Z,4.93
2022-10-14T17:25:59.239Z,4.80
2022-10-14T17:29:02.359Z,5.43
2022-10-14T17:32:05.107Z,6.30
2022-10-14T17:35:12.838Z,6.10
2022-10-14T17:38:17.792Z,5.13
2022-10-14T17:41:20.532Z,5.45
2022-10-14T17:44:23.499Z,5.53
2022-10-14T17:47:26.722Z,5.25
2022-10-14T17:50:30.806Z,5.57
2022-10-14T17:53:33.391Z,5.23
2022-10-14T17:56:37.536Z,5.05
2022-10-14T17:59:40.233Z,5.22
2022-10-14T18:02:42.860Z,4.70
2022-10-14T18:05:48.961Z,4.63
2022-10-14T18:08:53.737Z,5.20
2022-10-14T18:12:13.008Z,5.78
2022-10-14T18:15:16.078Z,4.47
2022-10-14T18:18:18.774Z,4.50
2022-10-14T18:21:23.081Z,4.75
2022-10-14T18:24:25.923Z,4.37
2022-10-14T18:27:28.625Z,4.32
2022-10-14T18:30:31.369Z,4.90
2022-10-14T18:33:35.555Z,4.65
2022-10-14T18:36:39.615Z,4.80
2022-10-14T18:39:42.301Z,4.93
2022-10-14T18:42:45.158Z,5.20
2022-10-14T18:45:47.881Z,5.75
2022-10-14T18:48:52.795Z,5.43
2022-10-14T18:51:56.733Z,5.18
2022-10-14T18:54:59.358Z,4.77
2022-10-14T18:58:02.081Z,5.55
2022-10-14T19:01:05.295Z,5.18
2022-10-14T19:04:09.417Z,4.93
2022-10-14T19:07:13.456Z,5.65
2022-10-14T19:10:16.178Z,4.83
2022-10-14T19:13:18.932Z,5.15
2022-10-14T19:16:23.468Z,4.68
2022-10-14T19:19:26.022Z,4.40
2022-10-14T19:22:30.053Z,6.07
2022-10-14T19:25:33.080Z,4.97
2022-10-14T19:28:35.996Z,4.53
2022-10-14T19:31:40.000Z,5.63
2022-10-14T19:34:47.054Z,5.10
2022-10-14T19:37:51.378Z,5.15
2022-10-14T19:40:53.992Z,4.30
2022-10-14T19:43:57.969Z,5.00
2022-10-14T19:47:00.815Z,4.72
2022-10-14T19:50:03.520Z,4.43
2022-10-14T19:53:07.590Z,4.60
2022-10-14T19:56:14.549Z,4.90
2022-10-14T19:59:17.273Z,4.47
2022-10-14T20:02:20.081Z,4.72
2022-10-14T20:05:23.016Z,5.15
2022-10-14T20:08:29.447Z,4.82
2022-10-14T20:11:32.305Z,5.23
2022-10-14T20:14:35.177Z,5.50
2022-10-14T20:17:37.869Z,6.13
2022-10-14T20:20:40.646Z,4.70
2022-10-14T20:23:46.441Z,5.20
2022-10-14T20:26:49.138Z,5.80
2022-10-14T20:29:51.955Z,5.35
2022-10-14T20:32:55.106Z,4.93
2022-10-14T20:36:01.970Z,4.80
2022-10-14T20:39:06.935Z,4.85
2022-10-14T20:42:09.613Z,5.40
2022-10-14T20:45:12.455Z,4.68
2022-10-14T20:48:15.339Z,4.97
2022-10-14T20:51:19.571Z,4.50
2022-10-14T20:54:24.140Z,5.72
2022-10-14T20:57:26.696Z,4.50
2022-10-14T21:00:32.790Z,4.47
2022-10-14T21:03:41.737Z,5.28
2022-10-14T21:06:44.733Z,4.53
2022-10-14T21:09:50.994Z,4.70
2022-10-14T21:12:53.642Z,4.47
2022-10-14T21:15:56.471Z,4.10
2022-10-14T21:19:01.865Z,4.60
2022-10-14T21:22:04.714Z,4.63
2022-10-14T21:25:09.638Z,4.75
2022-10-14T21:28:12.384Z,4.80
2022-10-14T21:31:19.277Z,5.00
2022-10-14T21:34:24.925Z,5.68
2022-10-14T21:37:27.750Z,5.45
2022-10-14T21:40:31.910Z,5.15
2022-10-14T21:43:39.020Z,6.50
2022-10-14T21:46:42.052Z,5.50
2022-10-14T21:49:45.012Z,5.67
2022-10-14T21:52:48.119Z,5.73
2022-10-14T21:55:54.502Z,5.90
2022-10-14T21:58:57.704Z,5.72
2022-10-14T22:02:00.639Z,6.20
2022-10-14T22:05:03.550Z,5.97
2022-10-14T22:08:06.378Z,5.97
2022-10-14T22:11:18.867Z,5.93
2022-10-14T22:14:23.552Z,5.88
2022-10-14T22:17:26.828Z,5.60
2022-10-14T22:20:29.847Z,6.97
2022-10-14T22:23:33.082Z,6.47
2022-10-14T22:26:40.940Z,6.68
2022-10-14T22:29:45.730Z,6.45
2022-10-14T22:32:48.698Z,6.30
2022-10-14T22:35:51.788Z,7.23
2022-10-14T22:38:56.068Z,6.67
2022-10-14T22:42:00.531Z,6.55
2022-10-14T22:45:03.369Z,7.20
2022-10-14T22:48:06.787Z,7.32
2022-10-14T22:51:11.695Z,7.37
2022-10-14T22:54:14.721Z,6.80
2022-10-14T22:57:21.862Z,7.80
2022-10-14T23:00:27.522Z,7.00
2022-10-14T23:03:31.020Z,8.40
2022-10-14T23:06:36.628Z,7.53
2022-10-14T23:09:39.782Z,9.37
2022-10-14T23:12:44.050Z,8.18
2022-10-14T23:15:56.248Z,9.77
2022-10-14T23:19:00.173Z,9.20
2022-10-14T23:22:05.432Z,9.70
2022-10-14T23:25:09.117Z,10.17
2022-10-14T23:28:13.355Z,9.38
2022-10-14T23:31:18.177Z,10.00
2022-10-14T23:34:21.357Z,9.65
2022-10-14T23:37:24.335Z,9.63
2022-10-14T23:40:27.608Z,9.70
2022-10-14T23:43:32.093Z,8.10
2022-10-14T23:46:35.062Z,10.00
2022-10-14T23:49:38.044Z,8.60
2022-10-14T23:52:40.831Z,9.00
2022-10-14T23:55:44.368Z,9.02
2022-10-14T23:58:50.268Z,10.03
